sensor_id;sensor_type;location;lat;lon;timestamp;temperature;humidity
52575;DHT22;38468;48.114;-1.684;2024-01-07T00:01:26;8.10;61.80
52575;DHT22;38468;48.114;-1.684;2024-01-07T00:03:28;8.10;61.70
52575;DHT22;38468;48.114;-1.684;2024-01-07T00:05:28;8.10;61.80
52575;DHT22;38468;48.114;-1.684;2024-01-07T00:07:29;8.10;61.80
52575;DHT22;38468;48.114;-1.684;2024-01-07T00:09:29;8.10;61.80
52575;DHT22;38468;48.114;-1.684;2024-01-07T00:11:30;8.00;61.90
52575;DHT22;38468;48.114;-1.684;2024-01-07T00:13:32;8.10;62.00
52575;DHT22;38468;48.114;-1.684;2024-01-07T00:15:33;8.10;62.00
52575;DHT22;38468;48.114;-1.684;2024-01-07T00:17:33;8.00;62.00
52575;DHT22;38468;48.114;-1.684;2024-01-07T00:19:35;8.00;62.00
52575;DHT22;38468;48.114;-1.684;2024-01-07T00:21:37;8.00;62.10
52575;DHT22;38468;48.114;-1.684;2024-01-07T00:23:38;8.00;62.10
52575;DHT22;38468;48.114;-1.684;2024-01-07T00:25:39;8.00;62.10
52575;DHT22;38468;48.114;-1.684;2024-01-07T00:27:39;7.90;62.20
52575;DHT22;38468;48.114;-1.684;2024-01-07T00:29:40;7.90;62.20
52575;DHT22;38468;48.114;-1.684;2024-01-07T00:31:40;7.90;62.30
52575;DHT22;38468;48.114;-1.684;2024-01-07T00:33:41;7.90;62.30
52575;DHT22;38468;48.114;-1.684;2024-01-07T00:35:42;7.90;62.50
52575;DHT22;38468;48.114;-1.684;2024-01-07T00:37:42;7.90;62.40
52575;DHT22;38468;48.114;-1.684;2024-01-07T00:39:43;7.80;62.40
52575;DHT22;38468;48.114;-1.684;2024-01-07T00:41:46;7.80;62.40
52575;DHT22;38468;48.114;-1.684;2024-01-07T00:43:46;7.80;62.50
52575;DHT22;38468;48.114;-1.684;2024-01-07T00:45:47;7.70;62.50
52575;DHT22;38468;48.114;-1.684;2024-01-07T00:47:48;7.70;62.60
52575;DHT22;38468;48.114;-1.684;2024-01-07T00:49:48;7.70;62.60
52575;DHT22;38468;48.114;-1.684;2024-01-07T00:51:49;7.70;62.70
52575;DHT22;38468;48.114;-1.684;2024-01-07T00:53:49;7.70;62.70
52575;DHT22;38468;48.114;-1.684;2024-01-07T00:55:50;7.60;62.80
52575;DHT22;38468;48.114;-1.684;2024-01-07T00:57:51;7.60;62.80
52575;DHT22;38468;48.114;-1.684;2024-01-07T00:59:51;7.60;63.00
52575;DHT22;38468;48.114;-1.684;2024-01-07T01:01:52;7.60;62.90
52575;DHT22;38468;48.114;-1.684;2024-01-07T01:03:53;7.50;62.90
52575;DHT22;38468;48.114;-1.684;2024-01-07T01:05:56;7.50;63.00
52575;DHT22;38468;48.114;-1.684;2024-01-07T01:07:57;7.50;63.10
52575;DHT22;38468;48.114;-1.684;2024-01-07T01:09:58;7.50;63.20
52575;DHT22;38468;48.114;-1.684;2024-01-07T01:11:59;7.40;63.30
52575;DHT22;38468;48.114;-1.684;2024-01-07T01:13:59;7.40;63.30
52575;DHT22;38468;48.114;-1.684;2024-01-07T01:16:00;7.40;63.30
52575;DHT22;38468;48.114;-1.684;2024-01-07T01:18:01;7.40;63.40
52575;DHT22;38468;48.114;-1.684;2024-01-07T01:20:01;7.40;63.40
52575;DHT22;38468;48.114;-1.684;2024-01-07T01:22:02;7.40;63.60
52575;DHT22;38468;48.114;-1.684;2024-01-07T01:24:03;7.40;63.60
52575;DHT22;38468;48.114;-1.684;2024-01-07T01:26:04;7.40;63.60
52575;DHT22;38468;48.114;-1.684;2024-01-07T01:28:04;7.40;63.60
52575;DHT22;38468;48.114;-1.684;2024-01-07T01:30:06;7.30;63.70
52575;DHT22;38468;48.114;-1.684;2024-01-07T01:32:07;7.40;63.70
52575;DHT22;38468;48.114;-1.684;2024-01-07T01:34:08;7.30;63.80
52575;DHT22;38468;48.114;-1.684;2024-01-07T01:36:09;7.40;63.90
52575;DHT22;38468;48.114;-1.684;2024-01-07T01:38:09;7.30;63.90
52575;DHT22;38468;48.114;-1.684;2024-01-07T01:40:10;7.30;63.90
52575;DHT22;38468;48.114;-1.684;2024-01-07T01:42:11;7.30;64.10
52575;DHT22;38468;48.114;-1.684;2024-01-07T01:44:17;7.30;64.10
52575;DHT22;38468;48.114;-1.684;2024-01-07T01:46:17;7.30;64.20
52575;DHT22;38468;48.114;-1.684;2024-01-07T01:48:18;7.30;64.30
52575;DHT22;38468;48.114;-1.684;2024-01-07T01:50:19;7.30;64.20
52575;DHT22;38468;48.114;-1.684;2024-01-07T01:52:20;7.20;64.10
52575;DHT22;38468;48.114;-1.684;2024-01-07T01:54:22;7.20;64.10
52575;DHT22;38468;48.114;-1.684;2024-01-07T01:56:22;7.20;64.20
52575;DHT22;38468;48.114;-1.684;2024-01-07T01:58:24;7.20;64.20
52575;DHT22;38468;48.114;-1.684;2024-01-07T02:00:25;7.20;64.40
52575;DHT22;38468;48.114;-1.684;2024-01-07T02:02:27;7.20;64.30
52575;DHT22;38468;48.114;-1.684;2024-01-07T02:04:28;7.20;64.30
52575;DHT22;38468;48.114;-1.684;2024-01-07T02:06:28;7.20;64.30
52575;DHT22;38468;48.114;-1.684;2024-01-07T02:08:29;7.20;64.40
52575;DHT22;38468;48.114;-1.684;2024-01-07T02:10:30;7.10;64.40
52575;DHT22;38468;48.114;-1.684;2024-01-07T02:12:34;7.20;64.50
52575;DHT22;38468;48.114;-1.684;2024-01-07T02:14:35;7.10;64.50
52575;DHT22;38468;48.114;-1.684;2024-01-07T02:16:36;7.10;64.60
52575;DHT22;38468;48.114;-1.684;2024-01-07T02:18:38;7.10;64.70
52575;DHT22;38468;48.114;-1.684;2024-01-07T02:20:38;7.10;64.70
52575;DHT22;38468;48.114;-1.684;2024-01-07T02:22:39;7.10;64.80
52575;DHT22;38468;48.114;-1.684;2024-01-07T02:24:40;7.10;64.80
52575;DHT22;38468;48.114;-1.684;2024-01-07T02:26:40;7.10;64.90
52575;DHT22;38468;48.114;-1.684;2024-01-07T02:28:41;7.10;64.90
52575;DHT22;38468;48.114;-1.684;2024-01-07T02:30:41;7.10;64.90
52575;DHT22;38468;48.114;-1.684;2024-01-07T02:32:42;7.00;64.90
52575;DHT22;38468;48.114;-1.684;2024-01-07T02:34:43;7.00;65.00
52575;DHT22;38468;48.114;-1.684;2024-01-07T02:36:44;7.00;65.10
52575;DHT22;38468;48.114;-1.684;2024-01-07T02:38:45;7.00;65.10
52575;DHT22;38468;48.114;-1.684;2024-01-07T02:40:45;6.90;65.20
52575;DHT22;38468;48.114;-1.684;2024-01-07T02:42:46;7.00;65.20
52575;DHT22;38468;48.114;-1.684;2024-01-07T02:44:47;7.00;65.30
52575;DHT22;38468;48.114;-1.684;2024-01-07T02:46:47;7.00;65.30
52575;DHT22;38468;48.114;-1.684;2024-01-07T02:48:48;7.00;65.40
52575;DHT22;38468;48.114;-1.684;2024-01-07T02:50:48;6.90;65.40
52575;DHT22;38468;48.114;-1.684;2024-01-07T02:52:49;7.00;65.50
52575;DHT22;38468;48.114;-1.684;2024-01-07T02:54:50;7.00;65.50
52575;DHT22;38468;48.114;-1.684;2024-01-07T02:56:50;7.00;65.50
52575;DHT22;38468;48.114;-1.684;2024-01-07T02:58:51;6.90;65.50
52575;DHT22;38468;48.114;-1.684;2024-01-07T03:00:51;7.00;65.60
52575;DHT22;38468;48.114;-1.684;2024-01-07T03:02:52;6.90;65.60
52575;DHT22;38468;48.114;-1.684;2024-01-07T03:04:53;6.90;65.60
52575;DHT22;38468;48.114;-1.684;2024-01-07T03:06:54;6.90;65.70
52575;DHT22;38468;48.114;-1.684;2024-01-07T03:08:54;6.90;65.80
52575;DHT22;38468;48.114;-1.684;2024-01-07T03:10:55;6.90;65.90
52575;DHT22;38468;48.114;-1.684;2024-01-07T03:12:55;7.00;66.00
52575;DHT22;38468;48.114;-1.684;2024-01-07T03:14:56;7.00;66.00
52575;DHT22;38468;48.114;-1.684;2024-01-07T03:16:57;7.00;66.10
52575;DHT22;38468;48.114;-1.684;2024-01-07T03:18:57;7.00;66.20
52575;DHT22;38468;48.114;-1.684;2024-01-07T03:20:58;7.00;66.20
52575;DHT22;38468;48.114;-1.684;2024-01-07T03:23:00;7.10;66.30
52575;DHT22;38468;48.114;-1.684;2024-01-07T03:25:01;7.10;66.30
52575;DHT22;38468;48.114;-1.684;2024-01-07T03:27:01;7.10;66.30
52575;DHT22;38468;48.114;-1.684;2024-01-07T03:29:02;7.20;66.40
52575;DHT22;38468;48.114;-1.684;2024-01-07T03:31:14;7.20;66.50
52575;DHT22;38468;48.114;-1.684;2024-01-07T03:33:15;7.20;66.50
52575;DHT22;38468;48.114;-1.684;2024-01-07T03:35:15;7.20;66.50
52575;DHT22;38468;48.114;-1.684;2024-01-07T03:37:16;7.20;66.60
52575;DHT22;38468;48.114;-1.684;2024-01-07T03:39:17;7.30;66.60
52575;DHT22;38468;48.114;-1.684;2024-01-07T03:41:18;7.30;66.60
52575;DHT22;38468;48.114;-1.684;2024-01-07T03:43:19;7.30;66.60
52575;DHT22;38468;48.114;-1.684;2024-01-07T03:45:23;7.30;66.70
52575;DHT22;38468;48.114;-1.684;2024-01-07T03:47:23;7.40;66.70
52575;DHT22;38468;48.114;-1.684;2024-01-07T03:49:24;7.40;66.70
52575;DHT22;38468;48.114;-1.684;2024-01-07T03:51:25;7.40;66.70
52575;DHT22;38468;48.114;-1.684;2024-01-07T03:53:26;7.40;66.70
52575;DHT22;38468;48.114;-1.684;2024-01-07T03:55:27;7.30;66.80
52575;DHT22;38468;48.114;-1.684;2024-01-07T03:57:27;7.40;66.90
52575;DHT22;38468;48.114;-1.684;2024-01-07T03:59:28;7.40;66.90
52575;DHT22;38468;48.114;-1.684;2024-01-07T04:01:28;7.40;66.90
52575;DHT22;38468;48.114;-1.684;2024-01-07T04:03:29;7.40;66.90
52575;DHT22;38468;48.114;-1.684;2024-01-07T04:05:30;7.40;67.00
52575;DHT22;38468;48.114;-1.684;2024-01-07T04:07:30;7.40;67.00
52575;DHT22;38468;48.114;-1.684;2024-01-07T04:09:31;7.40;67.10
52575;DHT22;38468;48.114;-1.684;2024-01-07T04:11:32;7.40;67.00
52575;DHT22;38468;48.114;-1.684;2024-01-07T04:13:32;7.40;67.00
52575;DHT22;38468;48.114;-1.684;2024-01-07T04:15:33;7.50;67.10
52575;DHT22;38468;48.114;-1.684;2024-01-07T04:17:34;7.50;67.10
52575;DHT22;38468;48.114;-1.684;2024-01-07T04:19:37;7.50;67.10
52575;DHT22;38468;48.114;-1.684;2024-01-07T04:21:38;7.40;67.10
52575;DHT22;38468;48.114;-1.684;2024-01-07T04:23:39;7.40;67.10
52575;DHT22;38468;48.114;-1.684;2024-01-07T04:25:42;7.50;67.10
52575;DHT22;38468;48.114;-1.684;2024-01-07T04:27:44;7.50;67.10
52575;DHT22;38468;48.114;-1.684;2024-01-07T04:30:04;7.40;67.10
52575;DHT22;38468;48.114;-1.684;2024-01-07T04:32:05;7.40;67.10
52575;DHT22;38468;48.114;-1.684;2024-01-07T04:34:06;7.40;67.00
52575;DHT22;38468;48.114;-1.684;2024-01-07T04:36:07;7.40;67.00
52575;DHT22;38468;48.114;-1.684;2024-01-07T04:38:08;7.40;67.00
52575;DHT22;38468;48.114;-1.684;2024-01-07T04:40:09;7.30;66.90
52575;DHT22;38468;48.114;-1.684;2024-01-07T04:42:10;7.30;67.00
52575;DHT22;38468;48.114;-1.684;2024-01-07T04:44:10;7.30;67.10
52575;DHT22;38468;48.114;-1.684;2024-01-07T04:46:11;7.30;67.10
52575;DHT22;38468;48.114;-1.684;2024-01-07T04:48:13;7.30;67.10
52575;DHT22;38468;48.114;-1.684;2024-01-07T04:50:13;7.20;67.00
52575;DHT22;38468;48.114;-1.684;2024-01-07T04:52:15;7.20;67.00
52575;DHT22;38468;48.114;-1.684;2024-01-07T04:54:16;7.20;67.00
52575;DHT22;38468;48.114;-1.684;2024-01-07T04:56:17;7.10;67.10
52575;DHT22;38468;48.114;-1.684;2024-01-07T04:58:17;7.10;67.10
52575;DHT22;38468;48.114;-1.684;2024-01-07T05:00:21;7.10;67.10
52575;DHT22;38468;48.114;-1.684;2024-01-07T05:02:22;7.10;67.10
52575;DHT22;38468;48.114;-1.684;2024-01-07T05:04:23;7.00;67.20
52575;DHT22;38468;48.114;-1.684;2024-01-07T05:06:24;7.00;67.10
52575;DHT22;38468;48.114;-1.684;2024-01-07T05:08:27;7.00;67.20
52575;DHT22;38468;48.114;-1.684;2024-01-07T05:10:27;7.00;67.30
52575;DHT22;38468;48.114;-1.684;2024-01-07T05:12:28;7.00;67.30
52575;DHT22;38468;48.114;-1.684;2024-01-07T05:14:28;7.00;67.30
52575;DHT22;38468;48.114;-1.684;2024-01-07T05:16:29;7.00;67.40
52575;DHT22;38468;48.114;-1.684;2024-01-07T05:18:30;7.00;67.30
52575;DHT22;38468;48.114;-1.684;2024-01-07T05:20:31;6.90;67.30
52575;DHT22;38468;48.114;-1.684;2024-01-07T05:22:31;6.90;67.30
52575;DHT22;38468;48.114;-1.684;2024-01-07T05:24:32;6.90;67.30
52575;DHT22;38468;48.114;-1.684;2024-01-07T05:26:42;6.90;67.40
52575;DHT22;38468;48.114;-1.684;2024-01-07T05:28:43;6.90;67.50
52575;DHT22;38468;48.114;-1.684;2024-01-07T05:30:44;6.90;67.40
52575;DHT22;38468;48.114;-1.684;2024-01-07T05:32:44;6.80;67.40
52575;DHT22;38468;48.114;-1.684;2024-01-07T05:34:45;6.80;67.40
52575;DHT22;38468;48.114;-1.684;2024-01-07T05:36:45;6.90;67.50
52575;DHT22;38468;48.114;-1.684;2024-01-07T05:38:46;6.80;67.60
52575;DHT22;38468;48.114;-1.684;2024-01-07T05:40:47;6.90;67.70
52575;DHT22;38468;48.114;-1.684;2024-01-07T05:42:47;6.80;67.80
52575;DHT22;38468;48.114;-1.684;2024-01-07T05:44:48;6.90;67.80
52575;DHT22;38468;48.114;-1.684;2024-01-07T05:46:49;6.90;67.90
52575;DHT22;38468;48.114;-1.684;2024-01-07T05:48:49;6.90;67.90
52575;DHT22;38468;48.114;-1.684;2024-01-07T05:50:50;6.90;68.00
52575;DHT22;38468;48.114;-1.684;2024-01-07T05:52:51;6.90;68.00
52575;DHT22;38468;48.114;-1.684;2024-01-07T05:54:52;6.90;68.00
52575;DHT22;38468;48.114;-1.684;2024-01-07T05:56:52;6.90;67.90
52575;DHT22;38468;48.114;-1.684;2024-01-07T05:58:53;6.90;67.90
52575;DHT22;38468;48.114;-1.684;2024-01-07T06:00:54;6.90;68.00
52575;DHT22;38468;48.114;-1.684;2024-01-07T06:02:54;7.00;68.10
52575;DHT22;38468;48.114;-1.684;2024-01-07T06:04:55;7.00;68.10
52575;DHT22;38468;48.114;-1.684;2024-01-07T06:06:56;7.00;68.20
52575;DHT22;38468;48.114;-1.684;2024-01-07T06:08:56;7.00;68.20
52575;DHT22;38468;48.114;-1.684;2024-01-07T06:10:57;7.10;68.30
52575;DHT22;38468;48.114;-1.684;2024-01-07T06:12:58;7.10;68.30
52575;DHT22;38468;48.114;-1.684;2024-01-07T06:15:04;7.10;68.20
52575;DHT22;38468;48.114;-1.684;2024-01-07T06:17:05;7.10;68.30
52575;DHT22;38468;48.114;-1.684;2024-01-07T06:19:06;7.10;68.30
52575;DHT22;38468;48.114;-1.684;2024-01-07T06:21:07;7.10;68.40
52575;DHT22;38468;48.114;-1.684;2024-01-07T06:23:07;7.10;68.30
52575;DHT22;38468;48.114;-1.684;2024-01-07T06:25:08;7.10;68.30
52575;DHT22;38468;48.114;-1.684;2024-01-07T06:27:09;7.10;68.40
52575;DHT22;38468;48.114;-1.684;2024-01-07T06:29:10;7.10;68.40
52575;DHT22;38468;48.114;-1.684;2024-01-07T06:31:10;7.20;68.40
52575;DHT22;38468;48.114;-1.684;2024-01-07T06:33:11;7.20;68.40
52575;DHT22;38468;48.114;-1.684;2024-01-07T06:35:13;7.10;68.40
52575;DHT22;38468;48.114;-1.684;2024-01-07T06:37:14;7.10;68.20
52575;DHT22;38468;48.114;-1.684;2024-01-07T06:39:14;7.00;68.00
52575;DHT22;38468;48.114;-1.684;2024-01-07T06:41:15;7.00;68.00
52575;DHT22;38468;48.114;-1.684;2024-01-07T06:43:15;6.90;68.10
52575;DHT22;38468;48.114;-1.684;2024-01-07T06:45:17;6.90;68.10
52575;DHT22;38468;48.114;-1.684;2024-01-07T06:47:17;6.90;68.20
52575;DHT22;38468;48.114;-1.684;2024-01-07T06:49:18;6.90;68.20
52575;DHT22;38468;48.114;-1.684;2024-01-07T06:51:19;6.90;68.30
52575;DHT22;38468;48.114;-1.684;2024-01-07T06:53:19;6.90;68.30
52575;DHT22;38468;48.114;-1.684;2024-01-07T06:55:20;6.90;68.30
52575;DHT22;38468;48.114;-1.684;2024-01-07T06:57:20;6.80;68.30
52575;DHT22;38468;48.114;-1.684;2024-01-07T06:59:21;6.80;68.30
52575;DHT22;38468;48.114;-1.684;2024-01-07T07:01:22;6.90;68.50
52575;DHT22;38468;48.114;-1.684;2024-01-07T07:03:23;6.90;68.60
52575;DHT22;38468;48.114;-1.684;2024-01-07T07:05:24;6.90;68.60
52575;DHT22;38468;48.114;-1.684;2024-01-07T07:07:24;6.90;68.60
52575;DHT22;38468;48.114;-1.684;2024-01-07T07:09:25;6.90;68.70
52575;DHT22;38468;48.114;-1.684;2024-01-07T07:11:26;6.90;68.80
52575;DHT22;38468;48.114;-1.684;2024-01-07T07:13:26;6.90;68.80
52575;DHT22;38468;48.114;-1.684;2024-01-07T07:15:28;6.90;68.90
52575;DHT22;38468;48.114;-1.684;2024-01-07T07:17:29;7.00;68.90
52575;DHT22;38468;48.114;-1.684;2024-01-07T07:19:30;7.00;68.90
52575;DHT22;38468;48.114;-1.684;2024-01-07T07:21:30;7.00;68.80
52575;DHT22;38468;48.114;-1.684;2024-01-07T07:23:31;7.00;68.80
52575;DHT22;38468;48.114;-1.684;2024-01-07T07:25:31;6.90;68.70
52575;DHT22;38468;48.114;-1.684;2024-01-07T07:27:32;6.90;68.80
52575;DHT22;38468;48.114;-1.684;2024-01-07T07:29:33;6.90;68.70
52575;DHT22;38468;48.114;-1.684;2024-01-07T07:31:33;6.90;68.80
52575;DHT22;38468;48.114;-1.684;2024-01-07T07:33:34;6.90;68.80
52575;DHT22;38468;48.114;-1.684;2024-01-07T07:35:35;6.90;68.80
52575;DHT22;38468;48.114;-1.684;2024-01-07T07:37:35;6.90;68.80
52575;DHT22;38468;48.114;-1.684;2024-01-07T07:39:36;6.90;68.90
52575;DHT22;38468;48.114;-1.684;2024-01-07T07:41:37;6.90;68.90
52575;DHT22;38468;48.114;-1.684;2024-01-07T07:43:37;6.90;68.90
52575;DHT22;38468;48.114;-1.684;2024-01-07T07:45:38;6.90;68.80
52575;DHT22;38468;48.114;-1.684;2024-01-07T07:47:38;6.90;68.90
52575;DHT22;38468;48.114;-1.684;2024-01-07T07:49:44;6.90;68.90
52575;DHT22;38468;48.114;-1.684;2024-01-07T07:51:46;6.80;68.80
52575;DHT22;38468;48.114;-1.684;2024-01-07T07:53:46;6.80;68.80
52575;DHT22;38468;48.114;-1.684;2024-01-07T07:55:47;6.80;68.80
52575;DHT22;38468;48.114;-1.684;2024-01-07T07:57:48;6.80;68.90
52575;DHT22;38468;48.114;-1.684;2024-01-07T07:59:48;6.80;68.90
52575;DHT22;38468;48.114;-1.684;2024-01-07T08:01:49;6.70;68.90
52575;DHT22;38468;48.114;-1.684;2024-01-07T08:03:50;6.70;69.00
52575;DHT22;38468;48.114;-1.684;2024-01-07T08:05:51;6.70;69.00
52575;DHT22;38468;48.114;-1.684;2024-01-07T08:07:51;6.80;69.00
52575;DHT22;38468;48.114;-1.684;2024-01-07T08:09:52;6.70;69.10
52575;DHT22;38468;48.114;-1.684;2024-01-07T08:11:53;6.70;69.00
52575;DHT22;38468;48.114;-1.684;2024-01-07T08:13:54;6.70;69.00
52575;DHT22;38468;48.114;-1.684;2024-01-07T08:15:55;6.70;69.10
52575;DHT22;38468;48.114;-1.684;2024-01-07T08:17:55;6.70;69.00
52575;DHT22;38468;48.114;-1.684;2024-01-07T08:19:56;6.70;69.10
52575;DHT22;38468;48.114;-1.684;2024-01-07T08:21:56;6.60;69.10
52575;DHT22;38468;48.114;-1.684;2024-01-07T08:23:57;6.70;69.20
52575;DHT22;38468;48.114;-1.684;2024-01-07T08:25:58;6.70;69.20
52575;DHT22;38468;48.114;-1.684;2024-01-07T08:27:58;6.60;69.30
52575;DHT22;38468;48.114;-1.684;2024-01-07T08:30:00;6.70;69.30
52575;DHT22;38468;48.114;-1.684;2024-01-07T08:32:02;6.70;69.30
52575;DHT22;38468;48.114;-1.684;2024-01-07T08:34:02;6.70;69.40
52575;DHT22;38468;48.114;-1.684;2024-01-07T08:36:03;6.70;69.50
52575;DHT22;38468;48.114;-1.684;2024-01-07T08:38:05;6.70;69.50
52575;DHT22;38468;48.114;-1.684;2024-01-07T08:40:06;6.70;69.60
52575;DHT22;38468;48.114;-1.684;2024-01-07T08:42:09;6.70;69.70
52575;DHT22;38468;48.114;-1.684;2024-01-07T08:44:10;6.70;69.60
52575;DHT22;38468;48.114;-1.684;2024-01-07T08:46:11;6.70;69.60
52575;DHT22;38468;48.114;-1.684;2024-01-07T08:48:14;6.70;69.60
52575;DHT22;38468;48.114;-1.684;2024-01-07T08:50:15;6.70;69.70
52575;DHT22;38468;48.114;-1.684;2024-01-07T08:52:15;6.70;69.60
52575;DHT22;38468;48.114;-1.684;2024-01-07T08:54:16;6.70;69.70
52575;DHT22;38468;48.114;-1.684;2024-01-07T08:56:16;6.70;69.70
52575;DHT22;38468;48.114;-1.684;2024-01-07T08:58:17;6.70;69.70
52575;DHT22;38468;48.114;-1.684;2024-01-07T09:00:26;6.70;69.70
52575;DHT22;38468;48.114;-1.684;2024-01-07T09:02:31;6.80;69.80
52575;DHT22;38468;48.114;-1.684;2024-01-07T09:04:31;6.80;70.00
52575;DHT22;38468;48.114;-1.684;2024-01-07T09:06:34;6.80;70.00
52575;DHT22;38468;48.114;-1.684;2024-01-07T09:08:34;6.90;70.10
52575;DHT22;38468;48.114;-1.684;2024-01-07T09:10:35;6.90;70.20
52575;DHT22;38468;48.114;-1.684;2024-01-07T09:12:37;6.90;70.20
52575;DHT22;38468;48.114;-1.684;2024-01-07T09:14:38;7.10;70.80
52575;DHT22;38468;48.114;-1.684;2024-01-07T09:16:39;7.40;71.90
52575;DHT22;38468;48.114;-1.684;2024-01-07T09:18:39;7.80;72.40
52575;DHT22;38468;48.114;-1.684;2024-01-07T09:20:40;8.30;73.20
52575;DHT22;38468;48.114;-1.684;2024-01-07T09:22:41;8.90;73.80
52575;DHT22;38468;48.114;-1.684;2024-01-07T09:24:42;9.40;74.00
52575;DHT22;38468;48.114;-1.684;2024-01-07T09:26:42;9.90;73.90
52575;DHT22;38468;48.114;-1.684;2024-01-07T09:28:43;10.20;73.40
52575;DHT22;38468;48.114;-1.684;2024-01-07T09:30:44;10.50;73.20
52575;DHT22;38468;48.114;-1.684;2024-01-07T09:32:44;10.90;73.10
52575;DHT22;38468;48.114;-1.684;2024-01-07T09:34:45;11.20;72.30
52575;DHT22;38468;48.114;-1.684;2024-01-07T09:36:46;11.50;72.40
52575;DHT22;38468;48.114;-1.684;2024-01-07T09:38:46;11.80;72.00
52575;DHT22;38468;48.114;-1.684;2024-01-07T09:40:47;12.00;71.20
52575;DHT22;38468;48.114;-1.684;2024-01-07T09:42:48;12.10;70.10
52575;DHT22;38468;48.114;-1.684;2024-01-07T09:44:51;12.30;70.30
52575;DHT22;38468;48.114;-1.684;2024-01-07T09:46:52;12.70;70.60
52575;DHT22;38468;48.114;-1.684;2024-01-07T09:48:54;12.90;70.00
52575;DHT22;38468;48.114;-1.684;2024-01-07T09:50:56;13.10;69.20
52575;DHT22;38468;48.114;-1.684;2024-01-07T09:52:58;13.40;68.90
52575;DHT22;38468;48.114;-1.684;2024-01-07T09:55:03;13.70;69.00
52575;DHT22;38468;48.114;-1.684;2024-01-07T09:57:07;14.00;68.10
52575;DHT22;38468;48.114;-1.684;2024-01-07T09:59:08;14.40;68.50
52575;DHT22;38468;48.114;-1.684;2024-01-07T10:01:24;14.60;67.30
52575;DHT22;38468;48.114;-1.684;2024-01-07T10:03:26;15.00;67.60
52575;DHT22;38468;48.114;-1.684;2024-01-07T10:05:26;15.40;68.00
52575;DHT22;38468;48.114;-1.684;2024-01-07T10:07:27;15.50;66.10
52575;DHT22;38468;48.114;-1.684;2024-01-07T10:09:30;15.40;64.00
52575;DHT22;38468;48.114;-1.684;2024-01-07T10:11:31;14.80;61.70
52575;DHT22;38468;48.114;-1.684;2024-01-07T10:13:31;14.10;60.30
52575;DHT22;38468;48.114;-1.684;2024-01-07T10:15:32;13.50;60.20
52575;DHT22;38468;48.114;-1.684;2024-01-07T10:17:33;13.00;60.30
52575;DHT22;38468;48.114;-1.684;2024-01-07T10:19:35;12.60;60.50
52575;DHT22;38468;48.114;-1.684;2024-01-07T10:21:37;12.20;60.60
52575;DHT22;38468;48.114;-1.684;2024-01-07T10:23:38;11.90;60.90
52575;DHT22;38468;48.114;-1.684;2024-01-07T10:25:39;11.70;61.10
52575;DHT22;38468;48.114;-1.684;2024-01-07T10:27:40;11.40;61.20
52575;DHT22;38468;48.114;-1.684;2024-01-07T10:29:40;11.20;60.40
52575;DHT22;38468;48.114;-1.684;2024-01-07T10:31:41;10.90;60.40
52575;DHT22;38468;48.114;-1.684;2024-01-07T10:33:43;10.70;60.40
52575;DHT22;38468;48.114;-1.684;2024-01-07T10:36:00;10.50;60.80
52575;DHT22;38468;48.114;-1.684;2024-01-07T10:38:02;10.40;61.00
52575;DHT22;38468;48.114;-1.684;2024-01-07T10:40:03;10.40;60.90
52575;DHT22;38468;48.114;-1.684;2024-01-07T10:42:04;10.20;60.90
52575;DHT22;38468;48.114;-1.684;2024-01-07T10:44:07;10.10;60.80
52575;DHT22;38468;48.114;-1.684;2024-01-07T10:46:09;10.00;60.90
52575;DHT22;38468;48.114;-1.684;2024-01-07T10:48:11;10.00;61.10
52575;DHT22;38468;48.114;-1.684;2024-01-07T10:50:14;9.90;61.00
52575;DHT22;38468;48.114;-1.684;2024-01-07T10:52:15;9.90;60.90
52575;DHT22;38468;48.114;-1.684;2024-01-07T10:54:18;9.80;60.90
52575;DHT22;38468;48.114;-1.684;2024-01-07T10:56:23;9.70;60.70
52575;DHT22;38468;48.114;-1.684;2024-01-07T10:58:24;9.50;60.40
52575;DHT22;38468;48.114;-1.684;2024-01-07T11:00:25;9.40;60.30
52575;DHT22;38468;48.114;-1.684;2024-01-07T11:02:26;9.30;60.20
52575;DHT22;38468;48.114;-1.684;2024-01-07T11:07:01;9.10;60.30
52575;DHT22;38468;48.114;-1.684;2024-01-07T11:11:35;9.00;60.40
52575;DHT22;38468;48.114;-1.684;2024-01-07T11:13:37;9.00;60.70
52575;DHT22;38468;48.114;-1.684;2024-01-07T11:17:47;8.90;60.90
52575;DHT22;38468;48.114;-1.684;2024-01-07T11:19:51;8.90;60.70
52575;DHT22;38468;48.114;-1.684;2024-01-07T11:21:52;8.90;60.70
52575;DHT22;38468;48.114;-1.684;2024-01-07T11:23:53;8.90;60.70
52575;DHT22;38468;48.114;-1.684;2024-01-07T11:25:53;8.90;60.80
52575;DHT22;38468;48.114;-1.684;2024-01-07T11:27:56;8.90;60.90
52575;DHT22;38468;48.114;-1.684;2024-01-07T11:30:02;8.90;61.00
52575;DHT22;38468;48.114;-1.684;2024-01-07T11:32:06;9.00;61.20
52575;DHT22;38468;48.114;-1.684;2024-01-07T11:34:07;9.00;61.10
52575;DHT22;38468;48.114;-1.684;2024-01-07T11:36:07;9.10;61.20
52575;DHT22;38468;48.114;-1.684;2024-01-07T11:38:08;9.10;61.10
52575;DHT22;38468;48.114;-1.684;2024-01-07T11:40:09;9.20;61.40
52575;DHT22;38468;48.114;-1.684;2024-01-07T11:42:12;9.30;61.70
52575;DHT22;38468;48.114;-1.684;2024-01-07T11:44:13;9.50;62.10
52575;DHT22;38468;48.114;-1.684;2024-01-07T11:46:15;9.70;62.10
52575;DHT22;38468;48.114;-1.684;2024-01-07T11:48:15;9.80;61.70
52575;DHT22;38468;48.114;-1.684;2024-01-07T11:50:16;9.90;61.80
52575;DHT22;38468;48.114;-1.684;2024-01-07T11:52:17;10.10;62.00
52575;DHT22;38468;48.114;-1.684;2024-01-07T11:54:17;10.30;61.90
52575;DHT22;38468;48.114;-1.684;2024-01-07T11:56:18;10.40;61.60
52575;DHT22;38468;48.114;-1.684;2024-01-07T11:58:19;10.40;60.80
52575;DHT22;38468;48.114;-1.684;2024-01-07T12:00:20;10.30;60.60
52575;DHT22;38468;48.114;-1.684;2024-01-07T12:02:20;10.20;60.20
52575;DHT22;38468;48.114;-1.684;2024-01-07T12:04:21;10.00;60.10
52575;DHT22;38468;48.114;-1.684;2024-01-07T12:06:22;9.90;60.10
52575;DHT22;38468;48.114;-1.684;2024-01-07T12:08:23;9.90;60.30
52575;DHT22;38468;48.114;-1.684;2024-01-07T12:10:24;9.80;60.00
52575;DHT22;38468;48.114;-1.684;2024-01-07T12:12:25;9.70;59.80
52575;DHT22;38468;48.114;-1.684;2024-01-07T12:14:26;9.70;59.90
52575;DHT22;38468;48.114;-1.684;2024-01-07T12:16:26;9.60;60.10
52575;DHT22;38468;48.114;-1.684;2024-01-07T12:18:27;9.50;60.00
52575;DHT22;38468;48.114;-1.684;2024-01-07T12:20:28;9.50;59.90
52575;DHT22;38468;48.114;-1.684;2024-01-07T12:22:28;9.40;59.90
52575;DHT22;38468;48.114;-1.684;2024-01-07T12:24:30;9.40;59.80
52575;DHT22;38468;48.114;-1.684;2024-01-07T12:26:31;9.30;59.90
52575;DHT22;38468;48.114;-1.684;2024-01-07T12:28:33;9.20;60.00
52575;DHT22;38468;48.114;-1.684;2024-01-07T12:30:34;9.20;60.10
52575;DHT22;38468;48.114;-1.684;2024-01-07T12:32:35;9.20;60.00
52575;DHT22;38468;48.114;-1.684;2024-01-07T12:34:36;9.10;59.90
52575;DHT22;38468;48.114;-1.684;2024-01-07T12:36:38;9.20;60.00
52575;DHT22;38468;48.114;-1.684;2024-01-07T12:38:40;9.20;59.90
52575;DHT22;38468;48.114;-1.684;2024-01-07T12:40:41;9.10;59.90
52575;DHT22;38468;48.114;-1.684;2024-01-07T12:42:42;9.10;60.00
52575;DHT22;38468;48.114;-1.684;2024-01-07T12:44:53;9.10;60.00
52575;DHT22;38468;48.114;-1.684;2024-01-07T12:46:54;9.10;60.00
52575;DHT22;38468;48.114;-1.684;2024-01-07T12:48:54;9.20;60.10
52575;DHT22;38468;48.114;-1.684;2024-01-07T12:50:55;9.50;62.00
52575;DHT22;38468;48.114;-1.684;2024-01-07T12:52:56;10.40;64.80